createdAt,value
2018-04-12T00:01:44.425Z,26.47
2018-04-12T00:04:12.703Z,26.50
2018-04-12T00:06:41.039Z,23.90
2018-04-12T00:09:09.319Z,25.43
2018-04-12T00:11:37.547Z,31.20
2018-04-12T00:14:05.770Z,32.60
2018-04-12T00:16:34.020Z,26.93
2018-04-12T00:19:02.260Z,27.97
2018-04-12T00:21:30.515Z,27.70
2018-04-12T00:23:58.771Z,26.30
2018-04-12T00:26:27.069Z,26.53
2018-04-12T00:28:56.060Z,27.27
2018-04-12T00:31:25.080Z,27.83
2018-04-12T00:33:53.341Z,24.60
2018-04-12T00:36:22.328Z,27.57
2018-04-12T00:38:50.662Z,33.33
2018-04-12T00:41:18.839Z,29.70
2018-04-12T00:43:47.092Z,30.53
2018-04-12T00:46:15.329Z,30.07
2018-04-12T00:48:44.345Z,28.80
2018-04-12T00:51:12.580Z,28.50
2018-04-12T00:53:52.798Z,27.83
2018-04-12T00:56:21.038Z,29.17
2018-04-12T00:58:49.287Z,28.50
2018-04-12T01:01:17.523Z,29.83
2018-04-12T01:03:45.773Z,30.13
2018-04-12T01:06:14.045Z,33.47
2018-04-12T01:08:42.282Z,28.70
2018-04-12T01:11:10.508Z,28.40
2018-04-12T01:13:38.798Z,28.00
2018-04-12T01:16:07.081Z,26.87
2018-04-12T01:18:35.320Z,29.63
2018-04-12T01:21:04.320Z,26.80
2018-04-12T01:23:32.570Z,26.70
2018-04-12T01:26:00.801Z,28.83
2018-04-12T01:28:29.057Z,30.67
2018-04-12T01:30:57.293Z,25.63
2018-04-12T01:33:25.544Z,28.80
2018-04-12T01:35:53.778Z,28.47
2018-04-12T01:38:22.043Z,32.03
2018-04-12T01:40:51.041Z,29.37
2018-04-12T01:43:19.284Z,28.50
2018-04-12T01:45:47.532Z,32.23
2018-04-12T01:48:15.896Z,29.03
2018-04-12T01:50:44.151Z,29.60
2018-04-12T01:53:12.445Z,28.43
2018-04-12T01:55:41.409Z,28.67
2018-04-12T01:58:10.407Z,33.33
2018-04-12T02:00:39.440Z,28.83
2018-04-12T02:03:07.683Z,29.87
2018-04-12T02:05:36.700Z,25.23
2018-04-12T02:08:04.978Z,29.07
2018-04-12T02:10:33.205Z,28.83
2018-04-12T02:13:01.460Z,34.23
2018-04-12T02:15:29.737Z,28.63
2018-04-12T02:17:57.992Z,27.40
2018-04-12T02:20:26.225Z,31.07
2018-04-12T02:22:55.313Z,28.40
2018-04-12T02:25:23.555Z,30.43
2018-04-12T02:27:51.793Z,29.17
2018-04-12T02:30:20.047Z,30.97
2018-04-12T02:32:49.032Z,30.13
2018-04-12T02:35:18.049Z,27.33
2018-04-12T02:37:46.272Z,26.37
2018-04-12T02:40:15.291Z,31.93
2018-04-12T02:42:43.532Z,30.27
2018-04-12T02:45:11.789Z,28.90
2018-04-12T02:47:40.021Z,27.73
2018-04-12T02:50:08.246Z,28.47
2018-04-12T02:52:36.500Z,31.63
2018-04-12T02:55:04.730Z,26.33
2018-04-12T02:57:32.973Z,33.33
2018-04-12T03:00:01.199Z,28.43
2018-04-12T03:02:29.466Z,27.53
2018-04-12T03:04:57.688Z,29.73
2018-04-12T03:07:25.946Z,29.00
2018-04-12T03:09:54.968Z,27.70
2018-04-12T03:12:23.213Z,27.03
2018-04-12T03:14:52.235Z,28.47
2018-04-12T03:17:20.478Z,31.27
2018-04-12T03:19:49.511Z,30.97
2018-04-12T03:22:17.737Z,29.33
2018-04-12T03:24:45.993Z,29.53
2018-04-12T03:27:14.228Z,30.97
2018-04-12T03:29:42.473Z,30.43
2018-04-12T03:32:10.732Z,33.67
2018-04-12T03:34:38.961Z,29.23
2018-04-12T03:37:07.204Z,29.87
2018-04-12T03:39:36.207Z,31.57
2018-04-12T03:42:05.217Z,27.93
2018-04-12T03:44:33.480Z,29.60
2018-04-12T03:47:01.759Z,30.97
2018-04-12T03:49:29.997Z,29.13
2018-04-12T03:51:58.243Z,32.57
2018-04-12T03:54:26.481Z,29.70
2018-04-12T03:56:55.501Z,30.33
2018-04-12T03:59:23.741Z,32.23
2018-04-12T04:01:51.982Z,30.20
2018-04-12T04:04:20.244Z,33.70
2018-04-12T04:06:48.504Z,32.13
2018-04-12T04:09:17.501Z,29.87
2018-04-12T04:11:45.754Z,29.77
2018-04-12T04:14:26.726Z,32.30
2018-04-12T04:17:06.830Z,30.87
2018-04-12T04:19:47.020Z,34.10
2018-04-12T04:22:15.255Z,31.53
2018-04-12T04:24:43.485Z,32.10
2018-04-12T04:27:12.578Z,29.53
2018-04-12T04:29:41.588Z,26.70
2018-04-12T04:32:09.826Z,29.57
2018-04-12T04:34:38.068Z,30.50
2018-04-12T04:37:06.307Z,28.73
2018-04-12T04:39:35.341Z,34.60
2018-04-12T04:42:04.387Z,33.37
2018-04-12T04:44:33.401Z,30.20
2018-04-12T04:47:01.646Z,30.50
2018-04-12T04:49:29.905Z,33.00
2018-04-12T04:51:58.154Z,27.30
2018-04-12T04:54:26.409Z,32.07
2018-04-12T04:56:54.661Z,26.80
2018-04-12T04:59:23.680Z,30.40
2018-04-12T05:01:51.912Z,35.77
2018-04-12T05:04:20.172Z,30.50
2018-04-12T05:06:48.401Z,29.87
2018-04-12T05:09:16.701Z,29.67
2018-04-12T05:11:44.957Z,28.63
2018-04-12T05:14:13.222Z,30.37
2018-04-12T05:16:41.465Z,32.40
2018-04-12T05:19:09.728Z,32.97
2018-04-12T05:21:38.004Z,30.90
2018-04-12T05:24:06.274Z,28.47
2018-04-12T05:26:34.517Z,33.07
2018-04-12T05:29:02.760Z,31.57
2018-04-12T05:31:31.795Z,31.73
2018-04-12T05:34:00.013Z,34.53
2018-04-12T05:36:28.276Z,28.93
2018-04-12T05:38:56.510Z,29.80
2018-04-12T05:41:24.783Z,30.00
2018-04-12T05:43:53.032Z,34.60
2018-04-12T05:46:21.359Z,32.70
2018-04-12T05:48:49.634Z,29.40
2018-04-12T05:51:17.862Z,34.13
2018-04-12T05:53:46.154Z,27.10
2018-04-12T05:56:15.165Z,29.33
2018-04-12T05:58:43.410Z,29.87
2018-04-12T06:01:11.663Z,32.00
2018-04-12T06:03:39.890Z,31.20
2018-04-12T06:06:08.148Z,28.43
2018-04-12T06:08:37.165Z,29.53
2018-04-12T06:11:05.445Z,26.43
2018-04-12T06:13:33.691Z,29.07
2018-04-12T06:16:02.689Z,29.77
2018-04-12T06:18:31.712Z,27.43
2018-04-12T06:20:59.964Z,29.27
2018-04-12T06:23:29.000Z,29.47
2018-04-12T06:25:57.293Z,26.53
2018-04-12T06:28:25.577Z,27.60
2018-04-12T06:30:53.838Z,27.93
2018-04-12T06:33:22.105Z,35.23
2018-04-12T06:35:50.334Z,30.70
2018-04-12T06:38:19.353Z,25.40
2018-04-12T06:40:47.800Z,30.63
2018-04-12T06:43:16.036Z,29.23
2018-04-12T06:45:44.258Z,28.03
2018-04-12T06:48:13.294Z,29.77
2018-04-12T06:50:41.612Z,24.73
2018-04-12T06:53:09.862Z,25.50
2018-04-12T06:55:38.098Z,24.27
2018-04-12T06:58:07.112Z,27.27
2018-04-12T07:00:35.373Z,26.47
2018-04-12T07:03:03.661Z,25.30
2018-04-12T07:05:31.975Z,25.37
2018-04-12T07:08:00.180Z,28.17
2018-04-12T07:10:28.426Z,25.90
2018-04-12T07:12:56.677Z,27.07
2018-04-12T07:15:24.927Z,28.17
2018-04-12T07:17:54.012Z,22.90
2018-04-12T07:20:22.246Z,24.43
2018-04-12T07:22:50.489Z,29.27
2018-04-12T07:25:18.862Z,21.97
2018-04-12T07:27:47.129Z,24.50
2018-04-12T07:30:15.392Z,25.47
2018-04-12T07:32:44.415Z,25.00
2018-04-12T07:35:12.677Z,28.87
2018-04-12T07:37:40.965Z,23.80
2018-04-12T07:40:09.225Z,25.27
2018-04-12T07:42:38.298Z,21.53
2018-04-12T07:45:06.550Z,23.90
2018-04-12T07:47:34.791Z,23.60
2018-04-12T07:50:03.074Z,27.80
2018-04-12T07:52:31.301Z,22.87
2018-04-12T07:54:59.567Z,26.27
2018-04-12T07:57:27.820Z,27.10
2018-04-12T07:59:56.081Z,25.57
2018-04-12T08:02:24.332Z,24.03
2018-04-12T08:04:53.383Z,28.13
2018-04-12T08:07:21.620Z,27.00
2018-04-12T08:09:49.881Z,25.03
2018-04-12T08:12:18.910Z,20.73
2018-04-12T08:14:47.157Z,23.37
2018-04-12T08:17:15.425Z,23.43
2018-04-12T08:19:44.430Z,20.90
2018-04-12T08:22:12.696Z,23.97
2018-04-12T08:24:41.703Z,30.80
2018-04-12T08:27:10.849Z,24.57
2018-04-12T08:29:39.157Z,28.03
2018-04-12T08:32:07.384Z,19.67
2018-04-12T08:34:35.648Z,26.17
2018-04-12T08:37:03.904Z,21.93
2018-04-12T08:39:32.186Z,18.80
2018-04-12T08:42:01.223Z,26.53
2018-04-12T08:44:29.496Z,37.57
2018-04-12T08:46:57.756Z,24.27
2018-04-12T08:49:25.993Z,25.17
2018-04-12T08:51:55.004Z,21.00
2018-04-12T08:54:23.254Z,25.17
2018-04-12T08:56:52.324Z,24.50
2018-04-12T08:59:20.576Z,24.67
2018-04-12T09:01:48.832Z,31.80
2018-04-12T09:04:17.086Z,21.93
2018-04-12T09:06:46.091Z,22.03
2018-04-12T09:09:14.349Z,20.57
2018-04-12T09:11:43.349Z,23.70
2018-04-12T09:14:12.395Z,18.23
2018-04-12T09:16:40.619Z,21.73
2018-04-12T09:19:09.706Z,22.53
2018-04-12T09:21:37.930Z,25.60
2018-04-12T09:24:06.194Z,21.47
2018-04-12T09:26:34.421Z,20.90
2018-04-12T09:29:02.671Z,24.10
2018-04-12T09:31:30.928Z,21.40
2018-04-12T09:33:59.179Z,22.47
2018-04-12T09:36:28.179Z,19.20
2018-04-12T09:38:56.466Z,27.63
2018-04-12T09:41:24.697Z,26.63
2018-04-12T09:43:52.949Z,21.70
2018-04-12T09:46:21.253Z,23.30
2018-04-12T09:48:49.504Z,26.17
2018-04-12T09:51:17.733Z,23.90
2018-04-12T09:53:45.987Z,20.90
2018-04-12T09:56:14.244Z,17.63
2018-04-12T09:58:42.505Z,22.50
2018-04-12T10:01:15.699Z,25.53
2018-04-12T10:03:43.927Z,18.50
2018-04-12T10:06:27.047Z,22.03
2018-04-12T10:09:01.790Z,25.03
2018-04-12T10:11:30.042Z,21.93
2018-04-12T10:13:59.056Z,16.87
2018-04-12T10:16:27.316Z,20.50
2018-04-12T10:18:56.355Z,18.43
2018-04-12T10:21:24.584Z,21.30
2018-04-12T10:23:53.604Z,20.27
2018-04-12T10:26:21.838Z,21.33
2018-04-12T10:28:50.116Z,20.17
2018-04-12T10:31:18.334Z,17.73
2018-04-12T10:33:46.594Z,18.57
2018-04-12T10:36:15.596Z,20.50
2018-04-12T10:38:43.889Z,21.97
2018-04-12T10:41:12.085Z,23.27
2018-04-12T10:43:40.325Z,21.23
2018-04-12T10:46:08.582Z,18.33
2018-04-12T10:48:37.588Z,22.27
2018-04-12T10:51:06.613Z,22.60
2018-04-12T10:53:34.848Z,22.37
2018-04-12T10:56:03.873Z,24.00
2018-04-12T10:58:32.119Z,18.73
2018-04-12T11:01:01.112Z,20.47
2018-04-12T11:03:30.167Z,21.30
2018-04-12T11:05:58.371Z,18.07
2018-04-12T11:08:26.719Z,24.10
2018-04-12T11:10:54.961Z,22.23
2018-04-12T11:13:23.196Z,21.10
2018-04-12T11:15:51.456Z,21.87
2018-04-12T11:18:19.795Z,20.10
2018-04-12T11:20:48.027Z,23.70
2018-04-12T11:23:16.291Z,21.03
2018-04-12T11:25:44.628Z,25.37
2018-04-12T11:28:12.873Z,20.80
2018-04-12T11:30:41.874Z,20.70
2018-04-12T11:33:10.955Z,18.87
2018-04-12T11:35:39.193Z,17.93
2018-04-12T11:38:07.458Z,15.30
2018-04-12T11:40:35.770Z,13.03
2018-04-12T11:43:03.996Z,16.10
2018-04-12T11:45:32.229Z,13.03
2018-04-12T11:48:00.471Z,18.07
2018-04-12T11:50:28.705Z,15.00
2018-04-12T11:52:57.022Z,10.73
2018-04-12T11:55:25.236Z,12.13
2018-04-12T11:57:53.467Z,16.27
2018-04-12T12:00:21.714Z,17.47
2018-04-12T12:02:50.731Z,13.43
2018-04-12T12:05:18.982Z,17.60
2018-04-12T12:07:47.265Z,19.37
2018-04-12T12:10:16.291Z,11.67
2018-04-12T12:12:44.520Z,10.17
2018-04-12T12:15:13.501Z,12.20
2018-04-12T12:17:42.529Z,12.50
2018-04-12T12:20:10.770Z,17.03
2018-04-12T12:22:39.016Z,8.73
2018-04-12T12:25:07.264Z,13.20
2018-04-12T12:27:35.524Z,10.17
2018-04-12T12:30:04.524Z,16.70
2018-04-12T12:32:32.748Z,14.80
2018-04-12T12:35:01.000Z,14.67
2018-04-12T12:37:29.222Z,11.03
2018-04-12T12:39:57.477Z,13.80
2018-04-12T12:42:25.701Z,18.60
2018-04-12T12:44:53.940Z,10.97
2018-04-12T12:47:22.244Z,15.40
2018-04-12T12:49:51.232Z,13.20
2018-04-12T12:52:20.251Z,14.77
2018-04-12T12:54:48.487Z,12.73
2018-04-12T12:57:16.736Z,11.90
2018-04-12T12:59:44.958Z,13.80
2018-04-12T13:02:13.970Z,14.03
2018-04-12T13:04:42.192Z,17.83
2018-04-12T13:07:10.445Z,13.13
2018-04-12T13:09:38.690Z,13.47
2018-04-12T13:12:06.952Z,14.87
2018-04-12T13:14:35.971Z,11.97
2018-04-12T13:17:04.204Z,17.77
2018-04-12T13:19:32.435Z,9.13
2018-04-12T13:22:00.693Z,16.67
2018-04-12T13:24:28.916Z,11.57
2018-04-12T13:26:57.177Z,12.87
2018-04-12T13:29:25.407Z,14.97
2018-04-12T13:31:54.432Z,13.27
2018-04-12T13:34:24.029Z,14.83
2018-04-12T13:36:52.265Z,11.83
2018-04-12T13:39:20.891Z,15.83
2018-04-12T13:41:49.144Z,14.17
2018-04-12T13:44:18.216Z,13.63
2018-04-12T13:46:46.389Z,15.43
2018-04-12T13:49:14.668Z,15.53
2018-04-12T13:51:42.916Z,12.90
2018-04-12T13:54:11.160Z,17.53
2018-04-12T13:56:39.387Z,21.13
2018-04-12T13:59:07.689Z,15.60
2018-04-12T14:01:36.698Z,19.53
2018-04-12T14:04:04.955Z,15.87
2018-04-12T14:06:33.991Z,17.43
2018-04-12T14:09:02.226Z,17.60
2018-04-12T14:11:31.238Z,16.30
2018-04-12T14:13:59.532Z,14.30
2018-04-12T14:16:27.789Z,12.10
2018-04-12T14:18:56.034Z,16.43
2018-04-12T14:21:24.270Z,28.63
2018-04-12T14:23:52.524Z,20.10
2018-04-12T14:26:20.745Z,21.33
2018-04-12T14:28:48.995Z,27.23
2018-04-12T14:31:17.236Z,14.00
2018-04-12T14:33:46.226Z,17.60
2018-04-12T14:36:15.338Z,12.87
2018-04-12T14:38:43.486Z,14.73
2018-04-12T14:41:12.508Z,17.83
2018-04-12T14:43:40.733Z,14.93
2018-04-12T14:46:08.991Z,18.67
2018-04-12T14:48:37.248Z,20.97
2018-04-12T14:51:05.509Z,14.03
2018-04-12T14:53:33.794Z,21.87
2018-04-12T14:56:02.009Z,15.33
2018-04-12T14:58:30.241Z,14.90
2018-04-12T15:00:58.474Z,17.10
2018-04-12T15:03:26.729Z,15.77
2018-04-12T15:05:54.999Z,15.87
2018-04-12T15:08:24.061Z,17.50
2018-04-12T15:10:52.292Z,17.97
2018-04-12T15:13:21.091Z,22.10
2018-04-12T15:15:49.349Z,16.90
2018-04-12T15:18:17.609Z,16.37
2018-04-12T15:20:46.338Z,18.77
2018-04-12T15:23:15.293Z,31.00
2018-04-12T15:25:43.529Z,19.23
2018-04-12T15:28:11.853Z,20.77
2018-04-12T15:30:40.112Z,23.60
2018-04-12T15:33:08.390Z,33.43
2018-04-12T15:35:37.188Z,18.70
2018-04-12T15:38:05.422Z,18.20
2018-04-12T15:40:34.477Z,17.87
2018-04-12T15:43:03.125Z,21.87
2018-04-12T15:45:31.371Z,15.77
2018-04-12T15:48:00.375Z,20.17
2018-04-12T15:50:28.625Z,31.13
2018-04-12T15:52:57.653Z,22.10
2018-04-12T15:55:25.918Z,23.67
2018-04-12T15:57:54.130Z,25.43
2018-04-12T16:00:22.425Z,19.43
2018-04-12T16:02:50.680Z,21.60
2018-04-12T16:05:18.909Z,30.07
2018-04-12T16:07:47.995Z,28.57
2018-04-12T16:10:16.200Z,22.97
2018-04-12T16:12:44.470Z,18.50
2018-04-12T16:15:13.469Z,23.17
2018-04-12T16:17:41.688Z,24.30
2018-04-12T16:20:09.939Z,22.60
2018-04-12T16:22:38.184Z,25.80
2018-04-12T16:25:07.203Z,22.63
2018-04-12T16:27:35.449Z,24.10
2018-04-12T16:30:04.438Z,20.77
2018-04-12T16:32:32.700Z,23.07
2018-04-12T16:35:00.918Z,22.77
2018-04-12T16:37:29.192Z,21.83
2018-04-12T16:39:57.426Z,29.83
2018-04-12T16:42:25.650Z,19.20
2018-04-12T16:44:53.904Z,20.47
2018-04-12T16:47:22.896Z,27.80
2018-04-12T16:49:51.929Z,25.43
2018-04-12T16:52:20.167Z,27.47
2018-04-12T16:54:49.155Z,23.47
2018-04-12T16:57:18.172Z,23.30
2018-04-12T16:59:46.440Z,24.63
2018-04-12T17:02:15.468Z,22.60
2018-04-12T17:04:43.695Z,23.60
2018-04-12T17:07:12.713Z,20.40
2018-04-12T17:09:40.949Z,29.20
2018-04-12T17:12:09.217Z,23.83
2018-04-12T17:14:37.451Z,27.77
2018-04-12T17:17:05.685Z,22.83
2018-04-12T17:19:33.943Z,21.03
2018-04-12T17:22:02.183Z,25.27
2018-04-12T17:24:30.418Z,23.67
2018-04-12T17:26:59.445Z,21.10
2018-04-12T17:29:27.678Z,23.87
2018-04-12T17:31:56.734Z,26.50
2018-04-12T17:34:25.050Z,22.60
2018-04-12T17:36:53.304Z,21.67
2018-04-12T17:39:21.572Z,28.57
2018-04-12T17:41:49.800Z,24.13
2018-04-12T17:44:18.833Z,25.23
2018-04-12T17:46:47.055Z,22.47
2018-04-12T17:49:15.285Z,24.87
2018-04-12T17:51:43.554Z,25.50
2018-04-12T17:54:11.791Z,25.97
2018-04-12T17:56:40.807Z,24.67
2018-04-12T17:59:09.072Z,26.67
2018-04-12T18:01:38.112Z,27.73
2018-04-12T18:04:06.348Z,24.77
2018-04-12T18:06:35.367Z,26.23
2018-04-12T18:09:03.602Z,22.03
2018-04-12T18:11:32.608Z,23.03
2018-04-12T18:14:01.601Z,28.93
2018-04-12T18:16:30.621Z,27.37
2018-04-12T18:18:58.852Z,31.53
2018-04-12T18:21:27.097Z,24.57
2018-04-12T18:23:55.336Z,26.33
2018-04-12T18:26:23.596Z,30.40
2018-04-12T18:28:52.596Z,25.47
2018-04-12T18:31:20.832Z,27.40
2018-04-12T18:33:49.124Z,23.63
2018-04-12T18:36:17.316Z,24.87
2018-04-12T18:38:46.342Z,25.23
2018-04-12T18:41:14.571Z,24.67
2018-04-12T18:43:42.854Z,27.53
2018-04-12T18:46:11.106Z,25.03
2018-04-12T18:48:39.331Z,25.00
2018-04-12T18:51:07.556Z,26.00
2018-04-12T18:53:35.813Z,27.37
2018-04-12T18:56:04.045Z,25.33
2018-04-12T18:58:33.069Z,25.47
2018-04-12T19:01:01.323Z,28.77
2018-04-12T19:03:30.333Z,30.90
2018-04-12T19:05:58.576Z,27.73
2018-04-12T19:08:27.598Z,30.97
2018-04-12T19:10:55.854Z,26.43
2018-04-12T19:13:24.089Z,25.93
2018-04-12T19:15:52.318Z,25.07
2018-04-12T19:18:20.555Z,32.00
2018-04-12T19:20:48.806Z,25.77
2018-04-12T19:23:17.793Z,26.63
2018-04-12T19:25:46.124Z,25.77
2018-04-12T19:28:15.113Z,26.00
2018-04-12T19:30:44.164Z,26.80
2018-04-12T19:33:12.404Z,23.93
2018-04-12T19:35:40.653Z,29.93
2018-04-12T19:38:08.880Z,29.80
2018-04-12T19:40:37.141Z,29.93
2018-04-12T19:43:05.368Z,40.90
2018-04-12T19:45:33.623Z,29.87
2018-04-12T19:48:01.867Z,30.03
2018-04-12T19:50:30.088Z,25.87
2018-04-12T19:52:58.342Z,28.40
2018-04-12T19:55:26.577Z,28.90
2018-04-12T19:57:55.587Z,26.03
2018-04-12T20:00:23.849Z,28.63
2018-04-12T20:02:52.055Z,27.07
2018-04-12T20:05:20.318Z,29.07
2018-04-12T20:07:48.559Z,31.67
2018-04-12T20:10:16.788Z,30.63
2018-04-12T20:12:45.051Z,30.00
2018-04-12T20:15:13.283Z,38.00
2018-04-12T20:17:41.540Z,33.27
2018-04-12T20:20:09.765Z,28.47
2018-04-12T20:22:38.094Z,32.37
2018-04-12T20:25:07.063Z,33.10
2018-04-12T20:27:35.265Z,27.70
2018-04-12T20:30:03.540Z,31.60
2018-04-12T20:32:31.744Z,33.53
2018-04-12T20:35:00.797Z,31.27
2018-04-12T20:37:29.040Z,33.67
2018-04-12T20:39:57.268Z,32.80
2018-04-12T20:42:25.534Z,30.80
2018-04-12T20:44:53.776Z,33.50
2018-04-12T20:47:22.013Z,33.80
2018-04-12T20:49:50.256Z,34.33
2018-04-12T20:52:18.502Z,32.20
2018-04-12T20:54:46.763Z,35.20
2018-04-12T20:57:15.761Z,41.17
2018-04-12T20:59:44.016Z,33.63
2018-04-12T21:02:13.018Z,36.07
2018-04-12T21:04:42.032Z,41.40
2018-04-12T21:07:10.327Z,37.90
2018-04-12T21:09:38.550Z,49.00
2018-04-12T21:12:06.795Z,38.97
2018-04-12T21:14:35.020Z,46.17
2018-04-12T21:17:04.032Z,40.27
2018-04-12T21:19:32.261Z,37.70
2018-04-12T21:22:00.507Z,33.70
2018-04-12T21:24:28.738Z,36.57
2018-04-12T21:26:57.752Z,37.93
2018-04-12T21:29:25.989Z,34.07
2018-04-12T21:31:54.238Z,34.23
2018-04-12T21:34:22.492Z,35.10
2018-04-12T21:36:50.724Z,37.20
2018-04-12T21:39:19.743Z,37.97
2018-04-12T21:41:47.980Z,35.50
2018-04-12T21:44:16.199Z,38.37
2018-04-12T21:46:44.447Z,37.80
2018-04-12T21:49:13.465Z,36.90
2018-04-12T21:51:41.713Z,41.73
2018-04-12T21:54:09.961Z,36.23
2018-04-12T21:56:38.220Z,34.47
2018-04-12T21:59:06.454Z,34.97
2018-04-12T22:01:35.441Z,37.60
2018-04-12T22:04:04.452Z,37.50
2018-04-12T22:06:32.687Z,36.97
2018-04-12T22:09:00.969Z,37.37
2018-04-12T22:11:29.212Z,34.70
2018-04-12T22:13:57.441Z,37.17
2018-04-12T22:16:26.473Z,34.33
2018-04-12T22:18:54.705Z,34.03
2018-04-12T22:21:23.733Z,36.63
2018-04-12T22:23:51.960Z,33.40
2018-04-12T22:26:20.210Z,37.33
2018-04-12T22:28:48.454Z,39.70
2018-04-12T22:31:16.701Z,35.23
2018-04-12T22:33:44.929Z,38.07
2018-04-12T22:36:13.187Z,34.77
2018-04-12T22:38:41.414Z,38.90
2018-04-12T22:41:09.663Z,40.43
2018-04-12T22:43:37.890Z,38.93
2018-04-12T22:46:06.916Z,35.57
2018-04-12T22:48:35.153Z,33.83
2018-04-12T22:51:04.144Z,37.13
2018-04-12T22:53:32.397Z,38.53
2018-04-12T22:56:00.644Z,38.37
2018-04-12T22:58:28.886Z,39.30
2018-04-12T23:00:57.883Z,37.30
2018-04-12T23:03:26.899Z,40.10
2018-04-12T23:05:55.145Z,34.60
2018-04-12T23:08:24.154Z,39.80
2018-04-12T23:10:53.160Z,39.20
2018-04-12T23:13:21.416Z,38.40
2018-04-12T23:15:50.427Z,36.27
2018-04-12T23:18:18.675Z,39.83
2018-04-12T23:20:46.921Z,37.77
2018-04-12T23:23:15.179Z,35.90
2018-04-12T23:25:43.408Z,38.37
2018-04-12T23:28:12.443Z,35.53
2018-04-12T23:30:40.688Z,39.33
2018-04-12T23:33:09.667Z,37.07
2018-04-12T23:35:38.688Z,39.23
2018-04-12T23:38:06.917Z,35.90
2018-04-12T23:40:35.146Z,35.80
2018-04-12T23:43:03.412Z,35.73
2018-04-12T23:45:31.637Z,37.80
2018-04-12T23:47:59.876Z,39.93
2018-04-12T23:50:28.129Z,36.07
2018-04-12T23:52:57.134Z,35.93
2018-04-12T23:55:25.399Z,36.73
2018-04-12T23:57:54.431Z,38.27
